Terminal Aerodrome Forecast
Issued by NWS

Home | Current Version | Previous Version | Graphics & Text | Print | Product List | Glossary On
Versions: 1 2 3 4 5 6 7 8 9 10 11 12 13 14 15 16 17 18 19 20 21 22 23 24 25 26
000
FTUS43 KTOP 301129
TAFFOE
TAF
KFOE 301129Z 3012/0112 04018G28KT 5SM BR OVC007
      TEMPO 3012/3013 2SM TSRA BR OVC004CB
     FM301500 14009KT P6SM VCSH OVC007
     FM301700 18013KT P6SM VCSH OVC020
     FM010600 20010KT P6SM OVC007=

USA.gov is the U.S. government's official web portal to all federal, state and local government web resources and services.